Time;durP1;ratioP1;P1;durP2;ratioP2;P2;SDS_P1;SDS_P2;PMS_P1;PMS_P2;Temp;Humidity;BMP_temperature;BMP_pressure;BME280_temperature;BME280_humidity;BME280_pressure;Samples;Min_cycle;Max_cycle;Signal;HPM_P1;HPM_P2
2023/04/05 00:00:33;;;;;;;4.37;1.73;;;;;;;-0.13;85.90;101924.56;6076535;28;20041;-70
2023/04/05 00:03:29;;;;;;;6.43;2.00;;;;;;;-0.69;86.40;101937.56;6074931;28;20033;-70
2023/04/05 00:06:25;;;;;;;5.18;1.85;;;;;;;-1.07;88.23;101939.56;6076094;28;20548;-70
2023/04/05 00:09:20;;;;;;;4.88;1.90;;;;;;;-1.27;89.65;101922.72;6075964;28;20043;-70
2023/04/05 00:12:16;;;;;;;7.20;2.47;;;;;;;-0.93;91.11;101914.00;6076087;28;20390;-70
2023/04/05 00:15:11;;;;;;;4.60;1.57;;;;;;;-0.38;90.75;101934.06;6075263;28;20034;-69
2023/04/05 00:18:06;;;;;;;5.13;1.60;;;;;;;-0.82;89.03;101925.81;6075857;28;20026;-70
2023/04/05 00:21:01;;;;;;;4.77;1.93;;;;;;;-0.59;89.75;101919.91;6075998;28;20079;-69
2023/04/05 00:23:58;;;;;;;6.80;2.17;;;;;;;-0.44;88.37;101924.69;6074968;28;20292;-70
2023/04/05 00:26:53;;;;;;;4.35;1.80;;;;;;;0.00;89.66;101915.47;6075654;28;20472;-69
2023/04/05 00:29:49;;;;;;;4.87;2.00;;;;;;;0.08;86.82;101910.00;6075636;28;20122;-69
2023/04/05 00:32:46;;;;;;;5.45;2.03;;;;;;;-0.44;86.10;101929.03;6075723;28;20033;-69
2023/04/05 00:35:42;;;;;;;4.40;1.75;;;;;;;-1.01;87.02;101937.66;6075176;28;20037;-69
2023/04/05 00:38:37;;;;;;;7.33;2.33;;;;;;;-1.20;89.28;101919.06;6075290;28;20068;-69
2023/04/05 00:41:33;;;;;;;7.35;2.53;;;;;;;-0.22;92.12;101935.28;6075770;28;20033;-70
2023/04/05 00:44:33;;;;;;;5.45;2.60;;;;;;;-0.41;90.38;101922.00;6078614;28;20044;-69
2023/04/05 00:47:28;;;;;;;5.65;2.15;;;;;;;-0.95;87.83;101921.00;6081253;28;20029;-69
2023/04/05 00:50:24;;;;;;;7.53;2.40;;;;;;;-1.46;89.35;101923.25;6075312;28;20037;-69
2023/04/05 00:53:20;;;;;;;7.82;2.70;;;;;;;-1.52;90.12;101915.63;6056325;28;20486;-68
2023/04/05 00:56:15;;;;;;;5.68;2.13;;;;;;;-1.68;91.01;101925.56;6075162;28;20167;-69
2023/04/05 00:59:11;;;;;;;7.73;2.80;;;;;;;-1.20;91.75;101900.00;6057135;28;20072;-69
2023/04/05 01:02:17;;;;;;;4.47;1.93;;;;;;;-0.64;90.71;101914.00;6074798;28;20405;-69
2023/04/05 01:05:20;;;;;;;7.05;2.10;;;;;;;-1.01;88.68;101915.97;6056462;28;20510;-69
2023/04/05 01:08:32;;;;;;;4.65;1.85;;;;;;;-0.76;89.13;101920.41;6077398;28;20038;-69
2023/04/05 01:11:31;;;;;;;4.35;1.42;;;;;;;-0.76;88.71;101911.78;6074570;28;20064;-69
2023/04/05 01:14:26;;;;;;;3.42;1.65;;;;;;;-0.70;89.97;101911.56;6049232;28;20033;-69
2023/04/05 01:17:23;;;;;;;4.47;1.63;;;;;;;-0.38;90.45;101914.03;6069862;28;20117;-69
2023/04/05 01:20:19;;;;;;;4.30;2.00;;;;;;;-0.41;88.72;101898.53;6074258;28;20104;-69
2023/04/05 01:23:29;;;;;;;4.82;1.38;;;;;;;0.03;88.02;101899.69;6074291;28;20029;-69
2023/04/05 01:26:53;;;;;;;6.18;2.00;;;;;;;-0.16;84.63;101907.28;6056716;28;20119;-69
2023/04/05 01:30:02;;;;;;;6.47;1.65;;;;;;;-0.26;85.47;101903.25;6089504;28;20034;-69
2023/04/05 01:33:18;;;;;;;4.15;1.80;;;;;;;-0.43;86.39;101915.09;6056584;28;20390;-69
2023/04/05 01:36:26;;;;;;;4.78;1.60;;;;;;;-0.07;88.18;101909.59;6073833;28;20041;-69
2023/04/05 01:39:22;;;;;;;3.70;1.88;;;;;;;0.15;87.99;101901.91;6056124;28;20112;-69
2023/04/05 01:42:26;;;;;;;2.75;1.23;;;;;;;0.19;89.38;101898.28;6075496;28;20120;-69
2023/04/05 01:45:21;;;;;;;5.55;1.80;;;;;;;0.19;88.03;101906.13;6074624;28;20025;-69
2023/04/05 01:48:16;;;;;;;6.43;1.80;;;;;;;-0.06;86.64;101879.16;6073765;28;20040;-69
2023/04/05 01:51:11;;;;;;;5.03;1.50;;;;;;;0.00;86.31;101890.22;6073622;28;20767;-69
2023/04/05 01:54:07;;;;;;;4.80;1.70;;;;;;;-0.12;84.95;101895.84;6073201;28;20075;-69
2023/04/05 01:57:03;;;;;;;7.10;2.42;;;;;;;-0.42;85.58;101888.16;6073595;28;20363;-69
2023/04/05 01:59:59;;;;;;;4.00;1.65;;;;;;;-1.00;86.42;101896.84;6073386;28;20030;-69
2023/04/05 02:02:54;;;;;;;3.17;1.63;;;;;;;-0.60;87.18;101915.63;6079966;28;20040;-69
2023/04/05 02:05:50;;;;;;;6.35;2.33;;;;;;;-0.62;86.98;101902.63;6078663;28;20029;-70
2023/04/05 02:08:45;;;;;;;4.72;1.95;;;;;;;-0.26;88.63;101892.84;6073573;28;20033;-69
2023/04/05 02:11:41;;;;;;;5.07;1.80;;;;;;;-0.81;85.84;101898.88;6073344;28;20053;-69
2023/04/05 02:14:36;;;;;;;5.93;2.23;;;;;;;-0.62;88.69;101899.16;6072525;28;20151;-69
2023/04/05 02:17:38;;;;;;;6.10;2.13;;;;;;;-0.49;87.82;101890.06;6073403;28;20479;-69
2023/04/05 02:20:33;;;;;;;3.60;1.60;;;;;;;-0.13;90.99;101888.94;6073009;28;20509;-69
2023/04/05 02:23:29;;;;;;;6.60;2.53;;;;;;;0.05;91.00;101891.84;6072435;28;20033;-70
2023/04/05 02:26:25;;;;;;;7.32;2.10;;;;;;;-0.10;88.84;101898.41;6073231;28;20103;-70
2023/04/05 02:29:20;;;;;;;4.00;1.60;;;;;;;-0.23;87.54;101892.75;6072934;28;20117;-70
2023/04/05 02:32:15;;;;;;;5.93;2.20;;;;;;;0.11;87.99;101889.06;6072961;28;20272;-70
2023/04/05 02:35:11;;;;;;;6.33;2.03;;;;;;;0.04;89.13;101904.03;6072259;28;20032;-70
2023/04/05 02:38:07;;;;;;;6.60;2.38;;;;;;;0.04;90.30;101884.91;6072735;28;20394;-69
2023/04/05 02:41:02;;;;;;;5.40;2.22;;;;;;;0.10;91.46;101889.94;6072231;28;20037;-70
2023/04/05 02:43:58;;;;;;;3.30;1.63;;;;;;;0.17;90.43;101879.25;6072044;28;20109;-70
2023/04/05 02:46:54;;;;;;;4.80;2.00;;;;;;;0.17;86.75;101881.00;6072832;28;20040;-70
2023/04/05 02:49:49;;;;;;;5.23;1.93;;;;;;;0.22;88.51;101871.28;6072637;28;20037;-70
2023/04/05 02:52:45;;;;;;;5.03;1.90;;;;;;;0.08;89.84;101861.31;6072876;28;20080;-70
2023/04/05 02:55:41;;;;;;;7.47;2.40;;;;;;;-0.11;87.86;101871.47;6054519;28;20041;-70
2023/04/05 02:58:36;;;;;;;5.87;1.90;;;;;;;0.02;85.18;101886.72;6072629;28;20043;-70
2023/04/05 03:01:31;;;;;;;7.13;2.37;;;;;;;0.07;85.96;101858.75;6072590;28;20034;-70
2023/04/05 03:04:27;;;;;;;6.70;2.40;;;;;;;0.03;85.44;101867.59;6072759;28;20033;-70
2023/04/05 03:07:24;;;;;;;6.63;2.17;;;;;;;0.13;88.28;101875.06;6088521;28;20268;-70
2023/04/05 03:10:25;;;;;;;5.82;2.13;;;;;;;0.07;91.12;101856.16;6072395;28;20033;-70
2023/04/05 03:13:20;;;;;;;10.07;2.50;;;;;;;0.03;90.99;101857.16;6072119;28;20048;-70
2023/04/05 03:16:15;;;;;;;5.90;1.90;;;;;;;0.02;90.32;101851.09;6072111;28;20033;-70
2023/04/05 03:19:10;;;;;;;7.80;2.53;;;;;;;0.05;90.67;101848.38;6073869;28;20394;-70
2023/04/05 03:22:06;;;;;;;4.77;2.37;;;;;;;-0.35;88.83;101840.16;6072581;28;20029;-70
2023/04/05 03:25:02;;;;;;;6.82;2.20;;;;;;;-0.49;89.15;101843.19;6071661;28;20038;-71
2023/04/05 03:27:59;;;;;;;5.90;2.67;;;;;;;-0.85;87.63;101839.13;6072573;28;20041;-70
2023/04/05 03:30:54;;;;;;;6.25;2.15;;;;;;;-0.79;89.41;101833.75;6072674;28;20044;-71
2023/04/05 03:33:50;;;;;;;5.28;2.22;;;;;;;-0.75;89.45;101841.41;6071579;28;20050;-70
2023/04/05 03:36:46;;;;;;;4.18;2.05;;;;;;;-0.65;91.26;101828.94;6072450;28;20046;-71
2023/04/05 03:39:42;;;;;;;7.03;2.22;;;;;;;-0.35;92.23;101830.59;6072049;28;20040;-71
2023/04/05 03:42:37;;;;;;;4.25;1.75;;;;;;;-0.13;93.11;101847.22;6072197;28;20037;-70
2023/04/05 03:45:33;;;;;;;5.10;2.07;;;;;;;-0.20;92.16;101824.03;6071669;28;20037;-72
2023/04/05 03:48:28;;;;;;;5.65;2.47;;;;;;;-0.07;91.67;101831.38;6072121;28;20481;-70
2023/04/05 03:51:23;;;;;;;7.93;2.67;;;;;;;-0.77;87.78;101832.81;6074657;28;20037;-71
2023/04/05 03:54:19;;;;;;;5.55;2.13;;;;;;;-1.39;87.76;101837.25;6075620;28;20334;-71
2023/04/05 03:57:14;;;;;;;6.57;2.00;;;;;;;-1.89;89.45;101832.53;6076612;28;20394;-71
2023/04/05 04:00:13;;;;;;;4.53;1.75;;;;;;;-2.24;90.76;101832.59;6076415;28;20029;-71
2023/04/05 04:03:09;;;;;;;4.05;1.67;;;;;;;-2.25;92.85;101846.44;6076245;28;20029;-72
2023/04/05 04:06:05;;;;;;;7.22;2.17;;;;;;;-2.27;93.39;101835.25;6086340;28;20044;-70
2023/04/05 04:09:00;;;;;;;5.30;1.88;;;;;;;-1.44;95.02;101833.91;6075977;28;20116;-70
2023/04/05 04:11:56;;;;;;;5.70;2.53;;;;;;;-1.23;92.81;101846.31;6076214;28;20034;-71
2023/04/05 04:14:51;;;;;;;4.07;2.20;;;;;;;-1.57;91.67;101842.94;6075410;28;20030;-70
2023/04/05 04:17:46;;;;;;;5.20;1.93;;;;;;;-1.15;91.64;101840.88;6075925;28;20392;-71
2023/04/05 04:20:42;;;;;;;6.57;1.83;;;;;;;-1.26;90.50;101854.22;6076129;28;20108;-71
2023/04/05 04:23:38;;;;;;;6.03;2.53;;;;;;;-1.44;90.10;101841.69;6075091;28;20022;-70
2023/04/05 04:26:36;;;;;;;7.03;2.30;;;;;;;-1.65;90.96;101847.47;6075980;28;20049;-70
2023/04/05 04:29:37;;;;;;;5.60;2.53;;;;;;;-1.38;90.83;101838.94;6075569;28;20116;-70
2023/04/05 04:35:46;;;;;;;10.48;2.30;;;;;;;-1.67;91.38;101857.09;6075018;28;20033;-72
2023/04/05 04:38:43;;;;;;;9.37;2.17;;;;;;;-1.77;92.19;101855.63;6075738;28;20483;-70
2023/04/05 04:41:43;;;;;;;9.43;2.38;;;;;;;-1.48;93.06;101842.69;6075629;28;20025;-70
2023/04/05 04:44:41;;;;;;;9.27;2.47;;;;;;;-0.89;93.29;101848.78;6074626;28;20215;-71
2023/04/05 04:47:36;;;;;;;7.78;2.38;;;;;;;-0.73;91.32;101849.16;6075299;28;20052;-70
2023/04/05 04:50:32;;;;;;;4.37;2.20;;;;;;;-0.91;88.72;101849.72;6075196;28;20736;-73
2023/04/05 04:53:27;;;;;;;5.00;1.93;;;;;;;-1.46;89.11;101845.22;6075499;28;20477;-70
2023/04/05 04:56:22;;;;;;;6.83;2.60;;;;;;;-1.83;90.43;101850.59;6079498;28;20051;-69
2023/04/05 04:59:17;;;;;;;7.17;3.20;;;;;;;-1.34;92.69;101842.31;6074976;28;20033;-71
2023/04/05 05:02:13;;;;;;;10.93;2.97;;;;;;;-1.46;91.89;101856.50;6074095;28;20510;-71
2023/04/05 05:05:09;;;;;;;5.10;2.73;;;;;;;-1.53;93.03;101854.13;6074432;28;20029;-72
2023/04/05 05:08:04;;;;;;;5.95;2.63;;;;;;;-1.46;92.99;101848.69;6075142;28;20152;-72
2023/04/05 05:11:00;;;;;;;6.50;2.53;;;;;;;-1.63;94.70;101866.50;6074922;28;20049;-71
2023/04/05 05:13:55;;;;;;;4.78;1.98;;;;;;;-1.53;95.82;101852.38;6073880;28;20079;-70
2023/04/05 05:16:50;;;;;;;9.07;3.17;;;;;;;-1.42;95.86;101852.94;6074884;28;20401;-72
2023/04/05 05:19:45;;;;;;;7.33;2.67;;;;;;;-0.97;96.28;101866.38;6074330;28;20045;-70
2023/04/05 05:22:41;;;;;;;5.07;2.10;;;;;;;-0.99;95.31;101849.97;6074618;28;20090;-70
2023/04/05 05:25:36;;;;;;;5.35;2.05;;;;;;;-0.96;95.54;101851.63;6082411;28;20478;-69
2023/04/05 05:28:31;;;;;;;7.63;2.10;;;;;;;-1.11;94.24;101852.91;6083984;28;20029;-71
2023/04/05 05:31:28;;;;;;;7.00;2.63;;;;;;;-1.25;95.11;101848.09;6074441;28;20029;-72
2023/04/05 05:34:23;;;;;;;8.57;3.47;;;;;;;-1.16;96.04;101848.72;6073575;28;20033;-69
2023/04/05 05:37:30;;;;;;;6.63;3.20;;;;;;;-1.02;95.80;101851.78;6074458;28;20037;-69
2023/04/05 05:40:25;;;;;;;7.45;3.22;;;;;;;-1.07;96.37;101845.88;6074031;28;20057;-71
2023/04/05 05:43:21;;;;;;;10.02;4.78;;;;;;;-0.68;96.82;101857.72;6073559;28;20046;-71
2023/04/05 05:46:18;;;;;;;6.97;3.40;;;;;;;0.02;96.94;101839.81;6074080;28;20029;-70
2023/04/05 05:49:13;;;;;;;6.57;2.67;;;;;;;0.18;94.66;101846.19;6073900;28;20445;-71
2023/04/05 05:52:08;;;;;;;7.43;2.53;;;;;;;-0.11;92.72;101844.59;6074220;28;20073;-70
2023/04/05 05:55:04;;;;;;;7.20;2.67;;;;;;;-0.42;93.01;101849.06;6081183;28;20037;-70
2023/04/05 05:57:59;;;;;;;6.50;2.55;;;;;;;-0.44;94.31;101856.94;6073973;28;20088;-70
2023/04/05 06:00:57;;;;;;;5.47;2.33;;;;;;;0.04;94.72;101864.06;6073885;28;20046;-70
2023/04/05 06:03:53;;;;;;;6.93;2.67;;;;;;;0.45;94.57;101866.13;6072755;28;20041;-70
2023/04/05 06:06:48;;;;;;;4.95;2.45;;;;;;;0.50;93.12;101859.84;6073852;28;20402;-70
2023/04/05 06:09:44;;;;;;;5.77;2.40;;;;;;;0.51;91.55;101866.78;6073685;28;20041;-72
2023/04/05 06:12:39;;;;;;;7.82;2.83;;;;;;;1.03;90.12;101851.81;6074103;28;20033;-71
2023/04/05 06:15:35;;;;;;;5.72;2.72;;;;;;;1.26;87.73;101862.22;6073061;28;20040;-72
2023/04/05 06:18:30;;;;;;;6.40;2.27;;;;;;;1.27;87.67;101848.28;6073512;28;20041;-69
2023/04/05 06:21:26;;;;;;;8.83;3.70;;;;;;;0.51;87.36;101847.66;6073891;28;20272;-69
2023/04/05 06:24:21;;;;;;;11.68;4.20;;;;;;;1.05;88.63;101858.69;6072759;28;20036;-71
2023/04/05 06:27:16;;;;;;;7.97;3.27;;;;;;;1.29;87.53;101866.50;6073557;28;20398;-70
2023/04/05 06:30:12;;;;;;;6.70;3.20;;;;;;;1.06;84.85;101847.31;6073384;28;20055;-72
2023/04/05 06:33:07;;;;;;;6.40;2.60;;;;;;;0.93;87.92;101869.56;6074618;28;20037;-70
2023/04/05 06:36:02;;;;;;;8.03;2.90;;;;;;;1.00;88.42;101863.25;6073010;28;20048;-72
2023/04/05 06:38:58;;;;;;;6.47;2.80;;;;;;;1.40;88.32;101859.94;6073217;28;20037;-70
2023/04/05 06:41:53;;;;;;;5.38;2.42;;;;;;;1.59;85.88;101844.38;6073440;28;20870;-70
2023/04/05 06:44:48;;;;;;;9.13;2.93;;;;;;;1.80;86.35;101838.28;6072623;28;20359;-70
2023/04/05 06:47:44;;;;;;;7.00;3.40;;;;;;;1.68;84.33;101850.13;6073194;28;20078;-70
2023/04/05 06:50:39;;;;;;;6.90;3.13;;;;;;;1.80;85.76;101854.84;6073410;28;20041;-70
2023/04/05 06:53:34;;;;;;;6.70;3.45;;;;;;;1.52;82.70;101840.31;6074247;28;20798;-69
2023/04/05 06:56:30;;;;;;;8.27;3.17;;;;;;;1.95;82.22;101853.38;6076045;28;20037;-69
2023/04/05 06:59:27;;;;;;;7.43;2.90;;;;;;;1.69;82.58;101851.81;6073158;28;20080;-70
2023/04/05 07:02:22;;;;;;;7.25;3.00;;;;;;;1.82;83.32;101830.41;6072984;28;20121;-69
2023/04/05 07:05:18;;;;;;;7.80;3.40;;;;;;;1.87;83.52;101839.75;6072596;28;20402;-70
2023/04/05 07:08:13;;;;;;;8.00;3.27;;;;;;;2.03;80.69;101847.81;6072540;28;20029;-70
2023/04/05 07:11:08;;;;;;;6.33;2.80;;;;;;;2.26;78.79;101832.84;6072698;28;20153;-70
2023/04/05 07:14:04;;;;;;;7.50;2.90;;;;;;;2.61;78.81;101830.47;6071968;28;20034;-69
2023/04/05 07:16:59;;;;;;;8.05;2.92;;;;;;;2.47;77.99;101824.97;6072689;28;20444;-69
2023/04/05 07:19:55;;;;;;;5.85;2.60;;;;;;;2.56;75.70;101832.41;6072592;28;20489;-69
2023/04/05 07:22:50;;;;;;;5.80;2.67;;;;;;;2.42;77.28;101823.41;6072385;28;20033;-70
2023/04/05 07:25:46;;;;;;;5.80;2.70;;;;;;;2.82;76.33;101837.34;6073845;28;20648;-71
2023/04/05 07:28:41;;;;;;;6.90;2.70;;;;;;;2.81;75.67;101826.03;6077362;28;20044;-70
2023/04/05 07:31:39;;;;;;;6.17;2.87;;;;;;;2.89;75.40;101823.06;6077461;28;20042;-70
2023/04/05 07:34:35;;;;;;;5.53;2.70;;;;;;;3.49;74.07;101828.06;6076770;28;20037;-70
2023/04/05 07:37:30;;;;;;;8.07;2.75;;;;;;;3.64;72.42;101823.84;6077115;28;20040;-70
2023/04/05 07:40:26;;;;;;;6.07;2.73;;;;;;;3.73;72.99;101822.53;6077405;28;20042;-69
2023/04/05 07:43:24;;;;;;;7.75;2.92;;;;;;;3.95;70.97;101810.91;6080268;28;20049;-69
2023/04/05 07:46:19;;;;;;;6.70;2.95;;;;;;;4.91;67.71;101833.00;6091919;28;20029;-70
2023/04/05 07:49:15;;;;;;;7.15;3.15;;;;;;;4.54;67.25;101807.84;6077108;28;20036;-69
2023/04/05 07:52:10;;;;;;;4.63;2.73;;;;;;;4.89;65.59;101826.16;6076883;28;20041;-71
2023/04/05 07:55:07;;;;;;;7.50;3.40;;;;;;;5.83;64.91;101809.38;6076070;28;20560;-70
2023/04/05 07:58:02;;;;;;;6.20;2.80;;;;;;;6.23;63.04;101802.66;6081160;28;20029;-70
2023/04/05 08:01:01;;;;;;;8.10;3.57;;;;;;;5.99;63.07;101822.53;6076972;28;20040;-70
2023/04/05 08:03:57;;;;;;;11.95;3.95;;;;;;;6.21;60.38;101815.06;6075988;28;20037;-69
2023/04/05 08:06:52;;;;;;;8.17;3.20;;;;;;;6.23;60.16;101804.44;6076339;28;20044;-70
2023/04/05 08:09:47;;;;;;;10.27;4.03;;;;;;;6.38;59.89;101824.59;6076182;28;20084;-70
2023/04/05 08:12:42;;;;;;;8.63;3.80;;;;;;;5.78;59.88;101821.13;6075999;28;20382;-70
2023/04/05 08:15:39;;;;;;;10.00;4.50;;;;;;;6.06;59.87;101825.66;6075573;28;20048;-70
2023/04/05 08:18:34;;;;;;;6.57;3.03;;;;;;;6.78;57.17;101817.75;6076107;28;20092;-70
2023/04/05 08:21:29;;;;;;;7.63;3.07;;;;;;;6.88;55.54;101819.72;6076216;28;20570;-70
2023/04/05 08:24:25;;;;;;;6.50;2.70;;;;;;;7.18;55.24;101815.16;6075464;28;20284;-70
2023/04/05 08:27:20;;;;;;;6.90;2.80;;;;;;;7.36;55.51;101818.44;6075740;28;20037;-70
2023/04/05 08:30:15;;;;;;;8.07;2.87;;;;;;;7.58;55.45;101807.34;6076114;28;20037;-70
2023/04/05 08:33:11;;;;;;;7.03;3.00;;;;;;;7.31;55.11;101820.50;6076138;28;20072;-70
2023/04/05 08:36:08;;;;;;;5.80;2.90;;;;;;;7.46;54.83;101808.13;6075609;28;20037;-69
2023/04/05 08:39:03;;;;;;;7.40;3.15;;;;;;;7.26;55.47;101806.75;6075861;28;20124;-70
2023/04/05 08:42:12;;;;;;;7.67;2.80;;;;;;;7.31;56.94;101814.41;6075678;28;20391;-70
2023/04/05 08:45:09;;;;;;;5.35;2.78;;;;;;;7.70;54.94;101809.16;6057388;28;20052;-70
2023/04/05 08:48:04;;;;;;;6.45;2.58;;;;;;;7.93;53.50;101812.94;6075518;28;20040;-69
2023/04/05 08:51:00;;;;;;;5.67;2.60;;;;;;;8.46;52.35;101806.69;6075807;28;20029;-70
2023/04/05 08:53:55;;;;;;;6.25;3.10;;;;;;;8.09;53.07;101797.75;6075062;28;20366;-70
2023/04/05 08:56:53;;;;;;;5.60;2.70;;;;;;;7.51;55.07;101795.47;6075272;28;20040;-70
2023/04/05 08:59:48;;;;;;;8.30;3.20;;;;;;;7.63;53.52;101795.53;6074238;28;20260;-69
2023/04/05 09:02:47;;;;;;;7.97;3.80;;;;;;;7.32;54.69;101800.25;6075114;28;20086;-69
2023/04/05 09:05:48;;;;;;;5.85;2.78;;;;;;;7.63;56.09;101806.09;6056948;28;20304;-70
2023/04/05 09:08:44;;;;;;;6.88;2.80;;;;;;;7.59;55.57;101807.22;6074605;28;20030;-71
2023/04/05 09:11:39;;;;;;;6.95;2.78;;;;;;;7.51;56.00;101803.38;6074913;28;20044;-71
2023/04/05 09:14:35;;;;;;;7.78;3.15;;;;;;;7.27;54.42;101799.69;6074078;28;20033;-71
2023/04/05 09:17:31;;;;;;;7.45;2.03;;;;;;;7.40;49.84;101798.81;6074388;28;20030;-70
2023/04/05 09:20:26;;;;;;;6.88;2.33;;;;;;;8.14;48.13;101780.63;6074711;28;20033;-70
2023/04/05 09:23:21;;;;;;;6.40;2.57;;;;;;;8.57;47.73;101788.28;6072842;28;20050;-69
2023/04/05 09:26:18;;;;;;;7.63;2.77;;;;;;;8.94;47.14;101795.34;6074459;28;20031;-71
2023/04/05 09:29:28;;;;;;;5.30;2.67;;;;;;;9.03;45.25;101785.88;6074512;28;20033;-69
2023/04/05 09:32:27;;;;;;;7.05;2.58;;;;;;;9.05;46.02;101792.75;6074250;28;20104;-68
2023/04/05 09:35:27;;;;;;;6.80;2.38;;;;;;;9.11;44.92;101784.38;6077333;28;20032;-70
2023/04/05 09:38:41;;;;;;;7.35;2.72;;;;;;;8.63;43.87;101783.41;6074193;28;20033;-69
2023/04/05 09:41:38;;;;;;;6.95;2.35;;;;;;;8.20;45.92;101790.78;6074403;28;20032;-70
2023/04/05 09:44:56;;;;;;;6.47;2.20;;;;;;;8.40;46.13;101792.09;6073621;28;20128;-71
2023/04/05 09:47:56;;;;;;;5.95;2.13;;;;;;;8.60;46.40;101788.06;6074043;28;20044;-71
2023/04/05 09:51:03;;;;;;;5.28;2.17;;;;;;;8.38;44.65;101784.28;6074187;28;20056;-71
2023/04/05 09:54:09;;;;;;;3.25;1.70;;;;;;;7.92;45.82;101795.38;6073787;28;20398;-69
2023/04/05 09:57:04;;;;;;;5.40;2.03;;;;;;;7.50;47.27;101796.44;6061741;28;20037;-70
2023/04/05 10:00:00;;;;;;;7.40;2.20;;;;;;;7.42;45.91;101788.16;6074736;28;20029;-69
2023/04/05 10:02:55;;;;;;;5.70;2.23;;;;;;;7.49;44.51;101782.38;6085685;28;20051;-69
2023/04/05 10:05:54;;;;;;;5.82;1.90;;;;;;;7.89;44.02;101780.59;6082235;28;20394;-70
2023/04/05 10:08:50;;;;;;;7.40;1.58;;;;;;;8.07;43.37;101779.34;6088820;28;20038;-72
2023/04/05 10:11:46;;;;;;;3.00;1.42;;;;;;;8.42;41.43;101787.56;6076362;28;20489;-70
2023/04/05 10:14:41;;;;;;;3.97;1.55;;;;;;;8.48;41.03;101779.19;6073428;28;20037;-70
2023/04/05 10:17:48;;;;;;;1.87;1.30;;;;;;;8.27;42.04;101781.53;6073262;28;20390;-69
2023/04/05 10:20:46;;;;;;;2.92;1.40;;;;;;;8.29;42.20;101778.75;6073560;28;20322;-71
2023/04/05 10:23:43;;;;;;;4.13;1.70;;;;;;;8.49;43.51;101765.03;6072292;28;20078;-72
2023/04/05 10:26:45;;;;;;;5.72;1.92;;;;;;;8.14;44.51;101770.06;6088429;28;20040;-71
2023/04/05 10:29:49;;;;;;;6.50;2.00;;;;;;;7.34;44.17;101758.78;6088681;28;20038;-71
2023/04/05 10:33:11;;;;;;;5.88;2.30;;;;;;;7.47;44.00;101768.44;6072976;28;20505;-70
2023/04/05 10:36:26;;;;;;;5.05;1.70;;;;;;;7.64;42.57;101775.22;6072494;28;20435;-70
2023/04/05 10:39:26;;;;;;;4.22;2.00;;;;;;;8.20;42.58;101747.66;6073126;28;20036;-71
2023/04/05 10:42:28;;;;;;;6.50;1.90;;;;;;;8.56;41.04;101762.81;6055351;28;20057;-70
2023/04/05 10:45:24;;;;;;;7.22;2.03;;;;;;;8.53;40.94;101761.22;6054745;28;20469;-70
2023/04/05 10:48:49;;;;;;;4.88;1.80;;;;;;;8.92;39.15;101754.91;6055247;28;20044;-70
2023/04/05 10:51:45;;;;;;;5.18;1.83;;;;;;;8.67;39.71;101737.28;6055465;28;20027;-69
2023/04/05 10:54:41;;;;;;;7.72;2.00;;;;;;;8.50;41.08;101747.38;6072301;28;20041;-71
2023/04/05 10:57:37;;;;;;;3.88;1.70;;;;;;;8.98;41.17;101741.25;6072545;28;20055;-72
2023/04/05 11:00:33;;;;;;;4.32;1.80;;;;;;;8.97;39.88;101721.03;6074256;28;20064;-71
2023/04/05 11:03:43;;;;;;;4.68;2.03;;;;;;;8.72;39.60;101736.97;6092411;28;20367;-72
2023/04/05 11:06:39;;;;;;;6.43;2.45;;;;;;;8.46;40.55;101743.25;6077707;28;20112;-69
2023/04/05 11:09:35;;;;;;;5.40;2.22;;;;;;;8.53;39.25;101742.72;6077050;28;20044;-71
2023/04/05 11:12:45;;;;;;;5.35;2.20;;;;;;;8.21;40.02;101744.06;6078038;28;20116;-70
2023/04/05 11:15:40;;;;;;;4.40;1.90;;;;;;;7.88;40.23;101727.88;6076709;28;20044;-70
2023/04/05 11:18:43;;;;;;;4.28;2.08;;;;;;;7.88;40.25;101727.88;6077540;28;20045;-70
2023/04/05 11:21:38;;;;;;;5.65;1.90;;;;;;;7.95;40.05;101737.94;6077300;28;20120;-71
2023/04/05 11:24:55;;;;;;;3.77;2.20;;;;;;;7.65;41.61;101734.69;6076185;28;20037;-70
2023/04/05 11:28:00;;;;;;;6.63;1.85;;;;;;;8.07;41.56;101713.31;6065183;28;20037;-71
2023/04/05 11:30:55;;;;;;;9.65;2.33;;;;;;;8.15;39.74;101718.91;6064059;28;20061;-70
2023/04/05 11:33:58;;;;;;;5.32;2.28;;;;;;;8.11;40.16;101733.28;6082965;28;20033;-70
2023/04/05 11:36:53;;;;;;;5.38;2.40;;;;;;;7.97;40.34;101706.97;6077187;28;20057;-70
2023/04/05 11:40:22;;;;;;;5.10;2.10;;;;;;;8.52;39.57;101711.09;6077366;28;20428;-71
2023/04/05 11:43:17;;;;;;;6.97;2.42;;;;;;;8.80;38.44;101697.59;6076592;28;20052;-71
2023/04/05 11:46:16;;;;;;;5.30;2.20;;;;;;;9.38;38.00;101708.25;6092260;28;20486;-71
2023/04/05 11:49:11;;;;;;;4.38;2.00;;;;;;;9.59;37.36;101685.47;6077018;28;20040;-71
2023/04/05 11:52:15;;;;;;;5.70;2.20;;;;;;;9.67;37.93;101681.41;6077194;28;20030;-71
2023/04/05 11:55:10;;;;;;;6.03;2.10;;;;;;;9.17;37.91;101664.00;6076236;28;20080;-71
2023/04/05 11:58:16;;;;;;;5.15;1.70;;;;;;;9.79;37.32;101689.25;6058853;28;20108;-71
2023/04/05 12:01:11;;;;;;;5.68;1.90;;;;;;;9.47;36.62;101685.56;6076735;28;20104;-71
2023/04/05 12:04:07;;;;;;;6.47;2.00;;;;;;;9.86;36.13;101673.75;6075209;28;20478;-71
2023/04/05 12:07:13;;;;;;;5.00;2.07;;;;;;;9.95;37.07;101665.91;6074888;28;20075;-69
2023/04/05 12:10:12;;;;;;;5.18;1.67;;;;;;;10.59;35.30;101666.19;6074721;28;20037;-72
2023/04/05 12:13:07;;;;;;;4.47;1.83;;;;;;;10.74;33.93;101660.50;6074333;28;20033;-70
2023/04/05 12:16:04;;;;;;;6.13;2.27;;;;;;;10.64;35.95;101650.75;6074128;28;20054;-70
2023/04/05 12:19:00;;;;;;;4.20;1.75;;;;;;;11.15;32.76;101643.84;6075380;28;20033;-72
2023/04/05 12:21:55;;;;;;;3.07;1.57;;;;;;;11.45;32.96;101645.75;6091422;28;20037;-69
2023/04/05 12:24:50;;;;;;;5.60;2.00;;;;;;;10.98;32.82;101656.84;6079548;28;20036;-69
2023/04/05 12:27:46;;;;;;;8.60;2.00;;;;;;;10.68;33.86;101655.69;6056886;28;20807;-70
2023/04/05 12:30:52;;;;;;;6.90;1.73;;;;;;;10.79;34.52;101651.34;6074536;28;20033;-71
2023/04/05 12:33:47;;;;;;;7.18;2.10;;;;;;;9.89;35.24;101644.38;6073296;28;20083;-71
2023/04/05 12:36:45;;;;;;;3.40;2.10;;;;;;;8.38;37.42;101641.56;6077953;28;20038;-71
2023/04/05 12:39:40;;;;;;;6.00;2.78;;;;;;;8.01;38.33;101647.72;6073992;28;20124;-70
2023/04/05 12:42:39;;;;;;;3.83;1.70;;;;;;;8.67;37.66;101652.69;6074099;28;20045;-72
2023/04/05 12:45:41;;;;;;;4.53;2.00;;;;;;;8.19;37.78;101641.13;6073485;28;20545;-71
2023/04/05 12:48:37;;;;;;;5.72;2.83;;;;;;;8.34;36.97;101634.78;6074700;28;20029;-70
2023/04/05 12:51:32;;;;;;;5.90;2.35;;;;;;;9.00;37.50;101620.28;6074399;28;20033;-71
2023/04/05 12:54:28;;;;;;;5.45;2.05;;;;;;;9.69;36.22;101618.56;6073649;28;20088;-71
2023/04/05 12:57:30;;;;;;;5.57;2.17;;;;;;;9.81;35.69;101615.81;6074323;28;20087;-70
2023/04/05 13:00:27;;;;;;;5.50;2.40;;;;;;;9.40;35.70;101621.63;6074077;28;20037;-71
2023/04/05 13:03:24;;;;;;;5.15;2.40;;;;;;;9.65;36.22;101620.59;6039061;28;996218;-72
2023/04/05 13:06:20;;;;;;;6.45;2.67;;;;;;;9.65;35.34;101601.25;6074642;28;20037;-71
2023/04/05 13:09:16;;;;;;;4.43;2.20;;;;;;;9.82;35.59;101614.00;6075072;28;20501;-70
2023/04/05 13:12:11;;;;;;;4.75;2.40;;;;;;;10.11;35.48;101618.72;6074834;28;20087;-72
2023/04/05 13:15:07;;;;;;;4.50;2.40;;;;;;;10.25;34.96;101608.84;6073974;28;20029;-71
2023/04/05 13:18:02;;;;;;;5.22;2.60;;;;;;;10.05;35.01;101591.88;6074662;28;20117;-71
2023/04/05 13:20:58;;;;;;;4.93;2.47;;;;;;;9.74;36.42;101588.13;6074549;28;20048;-72
2023/04/05 13:23:53;;;;;;;6.18;2.60;;;;;;;9.76;35.90;101585.34;6072960;28;20045;-71
2023/04/05 13:26:48;;;;;;;5.87;2.40;;;;;;;10.20;34.60;101590.66;6074544;28;20038;-70
2023/04/05 13:29:44;;;;;;;6.47;2.50;;;;;;;10.22;34.38;101594.03;6074229;28;20029;-72
2023/04/05 13:32:40;;;;;;;6.43;2.57;;;;;;;10.02;34.94;101585.00;6078972;28;20040;-71
2023/04/05 13:35:35;;;;;;;7.07;2.40;;;;;;;10.04;35.32;101579.56;6074735;28;20026;-70
2023/04/05 13:38:30;;;;;;;3.87;2.07;;;;;;;10.53;35.69;101572.06;6074240;28;20559;-72
2023/04/05 13:41:26;;;;;;;5.67;2.10;;;;;;;10.00;36.20;101583.44;6074286;28;20673;-71
2023/04/05 13:44:21;;;;;;;4.67;1.87;;;;;;;9.86;36.74;101568.63;6072973;28;20049;-71
2023/04/05 13:47:16;;;;;;;4.68;2.35;;;;;;;10.20;36.89;101566.81;6074139;28;20033;-71
2023/04/05 13:50:12;;;;;;;4.10;2.20;;;;;;;10.25;36.45;101572.59;6073795;28;20030;-72
2023/04/05 13:53:07;;;;;;;5.10;2.00;;;;;;;10.54;35.45;101547.25;6073839;28;20280;-71